Time;durP1;ratioP1;P1;durP2;ratioP2;P2;SDS_P1;SDS_P2;PMS_P1;PMS_P2;Temp;Humidity;BMP_temperature;BMP_pressure;BME280_temperature;BME280_humidity;BME280_pressure;Samples;Min_cycle;Max_cycle;Signal;HPM_P1;HPM_P2
2024/03/30 00:02:00;;;;;;;1.30;0.50;;;;;;;5.59;100.00;100165.60;105903;1261;61263;-58
2024/03/30 00:04:28;;;;;;;0.70;0.50;;;;;;;5.58;100.00;100161.70;105987;1259;61503;-57
2024/03/30 00:06:55;;;;;;;2.00;0.60;;;;;;;5.58;100.00;100167.94;105950;1253;73328;-55
2024/03/30 00:09:22;;;;;;;0.60;0.60;;;;;;;5.57;100.00;100167.59;105849;1257;66990;-56
2024/03/30 00:11:49;;;;;;;0.60;0.50;;;;;;;5.57;100.00;100172.76;105831;1254;72753;-55
2024/03/30 00:14:17;;;;;;;0.70;0.50;;;;;;;5.56;100.00;100174.55;105869;1259;61781;-55
2024/03/30 00:16:44;;;;;;;1.30;0.50;;;;;;;5.55;100.00;100173.16;105959;1254;61563;-56
2024/03/30 00:19:13;;;;;;;0.70;0.50;;;;;;;5.54;100.00;100174.43;105988;1256;74487;-56
2024/03/30 00:21:40;;;;;;;1.20;0.60;;;;;;;5.50;100.00;100172.20;105928;1258;66675;-55
2024/03/30 00:24:07;;;;;;;1.00;0.50;;;;;;;5.47;100.00;100170.67;105933;1257;71463;-56
2024/03/30 00:26:34;;;;;;;1.30;0.60;;;;;;;5.44;100.00;100164.16;106041;1254;63044;-57
2024/03/30 00:29:01;;;;;;;0.90;0.50;;;;;;;5.42;100.00;100160.27;105954;1259;61291;-56
2024/03/30 00:31:31;;;;;;;0.90;0.50;;;;;;;5.40;100.00;100168.67;105900;1254;74567;-59
2024/03/30 00:33:58;;;;;;;1.90;0.30;;;;;;;5.38;100.00;100175.83;106053;1254;66696;-55
2024/03/30 00:36:25;;;;;;;1.10;0.40;;;;;;;5.37;100.00;100181.18;105937;1257;73055;-55
2024/03/30 00:38:52;;;;;;;0.60;0.40;;;;;;;5.37;100.00;100183.15;105982;1260;62133;-56
2024/03/30 00:41:19;;;;;;;2.10;0.40;;;;;;;5.39;100.00;100187.92;105952;1257;61151;-55
2024/03/30 00:43:46;;;;;;;3.00;0.60;;;;;;;5.40;100.00;100187.00;105975;1258;72468;-57
2024/03/30 00:46:13;;;;;;;0.60;0.40;;;;;;;5.39;100.00;100181.33;105974;1254;65836;-56
2024/03/30 00:48:41;;;;;;;1.20;0.40;;;;;;;5.39;100.00;100184.17;105905;1255;72641;-55
2024/03/30 00:51:08;;;;;;;1.00;0.60;;;;;;;5.40;100.00;100192.71;105974;1257;62860;-55
2024/03/30 00:53:35;;;;;;;0.80;0.50;;;;;;;5.40;100.00;100199.10;105935;1254;62306;-56
2024/03/30 00:56:03;;;;;;;1.10;0.50;;;;;;;5.41;100.00;100201.77;105975;1260;75629;-55
2024/03/30 00:58:30;;;;;;;1.10;0.60;;;;;;;5.42;100.00;100198.89;106363;1257;67083;-56
2024/03/30 01:00:57;;;;;;;0.90;0.50;;;;;;;5.47;100.00;100201.27;105992;1258;72324;-56
2024/03/30 01:03:24;;;;;;;1.60;0.60;;;;;;;5.52;100.00;100199.21;106013;1269;61354;-54
2024/03/30 01:05:51;;;;;;;2.50;0.70;;;;;;;5.59;100.00;100195.87;105966;1257;61483;-55
2024/03/30 01:08:18;;;;;;;2.40;0.80;;;;;;;5.66;100.00;100194.65;105970;1259;74594;-56
2024/03/30 01:10:46;;;;;;;1.00;0.50;;;;;;;5.74;100.00;100193.22;105940;1269;67050;-55
2024/03/30 01:13:13;;;;;;;0.90;0.70;;;;;;;5.83;100.00;100194.83;105963;1256;71720;-56
2024/03/30 01:15:41;;;;;;;0.80;0.60;;;;;;;5.91;100.00;100195.38;106015;1270;63700;-56
2024/03/30 01:18:09;;;;;;;1.30;0.60;;;;;;;5.99;100.00;100192.34;106417;1257;61243;-56
2024/03/30 01:20:36;;;;;;;1.40;0.70;;;;;;;6.06;100.00;100192.35;106115;1258;74631;-56
2024/03/30 01:23:04;;;;;;;0.90;0.70;;;;;;;6.14;100.00;100190.94;107448;1256;66830;-54
2024/03/30 01:25:32;;;;;;;1.20;0.90;;;;;;;6.20;100.00;100194.19;106065;1263;72845;-54
2024/03/30 01:27:59;;;;;;;0.90;0.70;;;;;;;6.25;100.00;100195.48;105943;1254;61321;-56
2024/03/30 01:30:26;;;;;;;2.40;0.70;;;;;;;6.29;100.00;100198.08;105955;1254;61813;-56
2024/03/30 01:32:54;;;;;;;1.40;0.70;;;;;;;6.31;100.00;100200.33;109265;1254;72447;-54
2024/03/30 01:35:21;;;;;;;2.10;0.80;;;;;;;6.32;100.00;100197.80;109065;1254;66903;-55
2024/03/30 01:37:48;;;;;;;1.00;0.80;;;;;;;6.33;100.00;100199.02;109090;1253;71391;-54
2024/03/30 01:40:15;;;;;;;0.70;0.70;;;;;;;6.34;100.00;100199.02;108797;1253;60941;-54
2024/03/30 01:42:42;;;;;;;1.00;0.70;;;;;;;6.34;100.00;100194.02;109167;1253;59002;-57
2024/03/30 01:45:10;;;;;;;1.30;0.70;;;;;;;6.37;100.00;100200.21;109183;1254;74896;-58
2024/03/30 01:47:37;;;;;;;1.00;0.80;;;;;;;6.39;100.00;100205.82;109047;1257;65871;-54
2024/03/30 01:50:04;;;;;;;1.30;0.70;;;;;;;6.43;100.00;100207.89;108897;1257;72975;-57
2024/03/30 01:52:31;;;;;;;1.10;0.50;;;;;;;6.46;100.00;100205.66;108972;1253;60414;-55
2024/03/30 01:54:58;;;;;;;1.10;0.50;;;;;;;6.51;100.00;100206.79;109141;1253;60116;-54
2024/03/30 01:57:26;;;;;;;0.90;0.70;;;;;;;6.54;100.00;100206.02;108864;1253;74820;-54
2024/03/30 01:59:53;;;;;;;1.20;0.80;;;;;;;6.56;100.00;100206.47;109155;1254;67789;-55
2024/03/30 02:02:20;;;;;;;2.60;0.80;;;;;;;6.59;100.00;100202.14;109006;1254;72762;-55
2024/03/30 02:04:47;;;;;;;0.90;0.70;;;;;;;6.60;100.00;100200.50;108961;1254;60202;-55
2024/03/30 02:07:14;;;;;;;1.50;0.80;;;;;;;6.62;100.00;100200.81;109083;1253;62161;-56
2024/03/30 02:09:41;;;;;;;1.60;0.70;;;;;;;6.63;100.00;100202.92;108972;1254;74576;-55
2024/03/30 02:12:09;;;;;;;1.10;0.60;;;;;;;6.63;100.00;100200.98;109024;1254;65207;-56
2024/03/30 02:14:36;;;;;;;0.90;0.60;;;;;;;6.62;100.00;100207.61;108958;1255;71450;-54
2024/03/30 02:17:03;;;;;;;3.20;0.60;;;;;;;6.60;100.00;100206.92;109038;1254;60968;-55
2024/03/30 02:19:31;;;;;;;1.30;0.80;;;;;;;6.59;100.00;100203.21;107884;1259;60050;-58
2024/03/30 02:21:58;;;;;;;1.20;0.60;;;;;;;6.58;100.00;100203.58;105942;1254;74246;-56
2024/03/30 02:24:26;;;;;;;1.10;0.60;;;;;;;6.58;100.00;100204.48;105958;1260;67383;-56
2024/03/30 02:26:53;;;;;;;0.80;0.60;;;;;;;6.58;100.00;100203.41;105995;1258;72773;-55
2024/03/30 02:29:20;;;;;;;0.80;0.60;;;;;;;6.59;100.00;100206.94;106107;1254;62191;-55
2024/03/30 02:31:47;;;;;;;7.00;0.70;;;;;;;6.61;100.00;100208.52;106045;1256;61046;-56
2024/03/30 02:34:14;;;;;;;1.40;0.50;;;;;;;6.61;100.00;100206.01;105951;1260;74627;-56
2024/03/30 02:36:41;;;;;;;0.90;0.70;;;;;;;6.61;100.00;100201.38;106085;1254;65448;-55
2024/03/30 02:39:08;;;;;;;1.60;0.70;;;;;;;6.62;100.00;100201.36;106023;1260;72656;-57
2024/03/30 02:41:35;;;;;;;0.80;0.70;;;;;;;6.62;100.00;100200.12;105985;1260;61180;-54
2024/03/30 02:44:02;;;;;;;1.60;0.70;;;;;;;6.61;100.00;100205.48;106084;1254;61256;-56
2024/03/30 02:46:30;;;;;;;1.00;0.80;;;;;;;6.60;100.00;100203.19;105964;1258;73408;-56
2024/03/30 02:48:58;;;;;;;1.90;0.80;;;;;;;6.59;100.00;100204.81;105900;1258;66713;-57
2024/03/30 02:51:25;;;;;;;1.30;0.70;;;;;;;6.58;100.00;100210.17;105946;1259;71387;-56
2024/03/30 02:53:52;;;;;;;1.10;0.60;;;;;;;6.57;100.00;100210.91;105964;1254;61801;-56
2024/03/30 02:56:21;;;;;;;0.80;0.60;;;;;;;6.57;100.00;100211.63;106004;1270;61269;-58
2024/03/30 02:58:48;;;;;;;1.80;0.60;;;;;;;6.58;100.00;100212.69;105995;1254;73456;-58
2024/03/30 03:01:16;;;;;;;1.10;0.60;;;;;;;6.60;100.00;100217.10;105974;1256;66639;-57
2024/03/30 03:03:43;;;;;;;1.40;0.60;;;;;;;6.62;100.00;100220.61;105977;1254;71490;-57
2024/03/30 03:06:10;;;;;;;1.10;0.60;;;;;;;6.65;100.00;100221.05;105904;1259;61285;-58
2024/03/30 03:08:37;;;;;;;1.40;0.70;;;;;;;6.68;100.00;100221.16;105910;1259;61283;-57
2024/03/30 03:11:04;;;;;;;1.10;0.70;;;;;;;6.71;100.00;100219.13;105917;1260;74535;-58
2024/03/30 03:13:31;;;;;;;2.00;0.60;;;;;;;6.72;100.00;100215.34;105946;1259;67050;-57
2024/03/30 03:16:05;;;;;;;1.20;0.60;;;;;;;6.73;100.00;100221.02;105893;1270;72801;-57
2024/03/30 03:18:32;;;;;;;0.90;0.70;;;;;;;6.73;100.00;100222.45;105915;1257;61330;-57
2024/03/30 03:20:59;;;;;;;1.00;0.70;;;;;;;6.72;100.00;100221.08;105894;1260;62409;-57
2024/03/30 03:23:30;;;;;;;0.70;0.60;;;;;;;6.69;100.00;100226.14;105911;1254;74694;-57
2024/03/30 03:25:57;;;;;;;1.00;0.70;;;;;;;6.67;100.00;100225.83;106008;1254;65852;-58
2024/03/30 03:28:25;;;;;;;1.70;0.70;;;;;;;6.65;100.00;100231.21;105940;1254;71832;-58
2024/03/30 03:30:52;;;;;;;1.00;0.70;;;;;;;6.63;100.00;100230.02;105969;1260;62154;-57
2024/03/30 03:33:19;;;;;;;1.70;0.80;;;;;;;6.62;100.00;100225.43;105990;1256;61368;-56
2024/03/30 03:35:46;;;;;;;1.30;0.80;;;;;;;6.62;100.00;100224.19;105945;1263;74721;-58
2024/03/30 03:38:13;;;;;;;2.90;0.90;;;;;;;6.62;100.00;100225.42;105959;1259;66688;-58
2024/03/30 03:40:40;;;;;;;2.60;1.10;;;;;;;6.63;100.00;100223.09;105951;1260;71809;-57
2024/03/30 03:43:07;;;;;;;1.90;1.00;;;;;;;6.64;100.00;100231.58;106041;1260;62034;-57
2024/03/30 03:45:35;;;;;;;2.50;1.60;;;;;;;6.65;100.00;100229.98;106041;1258;61352;-58
2024/03/30 03:48:03;;;;;;;1.70;1.30;;;;;;;6.65;100.00;100224.62;106477;1258;74615;-58
2024/03/30 03:50:30;;;;;;;1.50;1.20;;;;;;;6.67;100.00;100229.21;106068;1253;67553;-58
2024/03/30 03:52:57;;;;;;;1.80;1.00;;;;;;;6.69;100.00;100229.19;105961;1263;72846;-58
2024/03/30 03:55:25;;;;;;;1.50;1.00;;;;;;;6.69;100.00;100226.32;105930;1254;62214;-57
2024/03/30 03:57:52;;;;;;;2.10;1.20;;;;;;;6.70;100.00;100225.23;105954;1263;61173;-57
2024/03/30 04:00:19;;;;;;;1.80;1.10;;;;;;;6.70;100.00;100222.54;106014;1257;75420;-57
2024/03/30 04:02:47;;;;;;;1.40;1.00;;;;;;;6.72;100.00;100220.53;106014;1260;67407;-58
2024/03/30 04:05:15;;;;;;;1.00;0.90;;;;;;;6.74;100.00;100223.33;106020;1260;71437;-57
2024/03/30 04:07:42;;;;;;;1.10;0.90;;;;;;;6.76;100.00;100230.05;105981;1260;61177;-59
2024/03/30 04:10:11;;;;;;;1.00;0.80;;;;;;;6.79;100.00;100229.98;105955;1262;61429;-58
2024/03/30 04:12:39;;;;;;;0.80;0.70;;;;;;;6.83;100.00;100229.52;106580;1258;73406;-57
2024/03/30 04:15:06;;;;;;;0.90;0.70;;;;;;;6.88;100.00;100228.35;105913;1263;66809;-57
2024/03/30 04:17:33;;;;;;;1.00;0.90;;;;;;;6.94;100.00;100229.60;106017;1259;72823;-58
2024/03/30 04:20:01;;;;;;;1.00;0.90;;;;;;;7.00;100.00;100224.28;105940;1260;61238;-58
2024/03/30 04:22:28;;;;;;;1.00;0.80;;;;;;;7.06;100.00;100227.86;106089;1256;61464;-57
2024/03/30 04:24:55;;;;;;;0.80;0.80;;;;;;;7.11;100.00;100226.11;105982;1258;74632;-56
2024/03/30 04:27:22;;;;;;;1.00;0.80;;;;;;;7.17;100.00;100232.73;106009;1258;65698;-57
2024/03/30 04:29:50;;;;;;;0.80;0.70;;;;;;;7.23;100.00;100235.96;105950;1260;72673;-59
2024/03/30 04:32:17;;;;;;;2.50;1.10;;;;;;;7.29;100.00;100237.78;105959;1269;62243;-58
2024/03/30 04:34:44;;;;;;;0.80;0.70;;;;;;;7.34;100.00;100241.20;106029;1258;61235;-58
2024/03/30 04:37:12;;;;;;;0.60;0.60;;;;;;;7.40;100.00;100241.94;105971;1263;74666;-57
2024/03/30 04:39:42;;;;;;;4.00;0.80;;;;;;;7.46;100.00;100244.45;105851;1260;67160;-57
2024/03/30 04:42:09;;;;;;;1.90;0.70;;;;;;;7.53;100.00;100247.45;106007;1254;72743;-57
2024/03/30 04:44:37;;;;;;;1.50;0.80;;;;;;;7.62;100.00;100243.63;105923;1260;61307;-57
2024/03/30 04:47:04;;;;;;;1.40;0.90;;;;;;;7.73;100.00;100250.64;105996;1254;61381;-56
2024/03/30 04:49:31;;;;;;;1.50;0.90;;;;;;;7.83;100.00;100254.79;105843;1268;130897;-57
2024/03/30 04:52:45;;;;;;;1.40;0.80;;;;;;;7.97;100.00;100268.34;102637;1292;601146;-58
2024/03/30 04:55:12;;;;;;;1.20;0.80;;;;;;;8.03;100.00;100276.02;105169;1271;62177;-57
2024/03/30 04:57:40;;;;;;;1.00;0.70;;;;;;;8.10;100.00;100280.08;105152;1266;60239;-58
2024/03/30 05:00:07;;;;;;;2.00;0.70;;;;;;;8.17;100.00;100276.15;105149;1270;72995;-57
2024/03/30 05:02:34;;;;;;;0.70;0.70;;;;;;;8.24;100.00;100271.27;105139;1273;65660;-58
2024/03/30 05:05:02;;;;;;;1.00;0.60;;;;;;;8.32;100.00;100275.16;108316;1265;72666;-57
2024/03/30 05:07:29;;;;;;;1.30;0.70;;;;;;;8.42;100.00;100279.52;108177;1266;177213;-57
2024/03/30 05:09:56;;;;;;;1.00;0.70;;;;;;;8.50;100.00;100281.39;108278;1269;60052;-58
2024/03/30 05:12:23;;;;;;;0.90;0.60;;;;;;;8.59;100.00;100284.85;108422;1263;71846;-58
2024/03/30 05:14:51;;;;;;;1.20;1.00;;;;;;;8.67;100.00;100290.34;108286;1266;65552;-58
2024/03/30 05:17:18;;;;;;;1.00;0.70;;;;;;;8.75;100.00;100297.96;108253;1263;71865;-58
2024/03/30 05:22:31;;;;;;;1.30;0.80;;;;;;;8.91;100.00;100294.41;105142;1266;60965;-57
2024/03/30 05:24:59;;;;;;;1.40;0.60;;;;;;;8.98;100.00;100295.24;105119;1271;73842;-57
2024/03/30 05:27:26;;;;;;;1.30;0.60;;;;;;;9.04;100.00;100301.48;105224;1266;67083;-56
2024/03/30 05:29:55;;;;;;;3.80;0.80;;;;;;;9.09;100.00;100304.89;105183;1267;72816;-58
2024/03/30 05:32:22;;;;;;;0.90;0.60;;;;;;;9.13;100.00;100306.55;105192;1270;60663;-58
2024/03/30 05:34:49;;;;;;;2.60;0.70;;;;;;;9.16;100.00;100307.54;105278;1270;60312;-57
2024/03/30 05:37:16;;;;;;;3.00;0.80;;;;;;;9.18;100.00;100306.92;105217;1269;73884;-56
2024/03/30 05:39:44;;;;;;;2.60;0.60;;;;;;;9.22;100.00;100308.02;105137;1270;67091;-57
2024/03/30 05:42:13;;;;;;;1.50;0.60;;;;;;;9.25;100.00;100301.84;105148;1270;72865;-58
2024/03/30 05:44:40;;;;;;;1.90;0.70;;;;;;;9.29;100.00;100304.55;105257;1269;60427;-58
2024/03/30 05:47:07;;;;;;;1.60;0.60;;;;;;;9.35;100.00;100305.63;105233;1265;60559;-58
2024/03/30 05:49:34;;;;;;;1.20;0.60;;;;;;;9.41;100.00;100309.71;105193;1269;74315;-58
2024/03/30 05:52:02;;;;;;;1.00;0.50;;;;;;;9.47;100.00;100307.88;105125;1270;66539;-58
2024/03/30 05:54:29;;;;;;;0.70;0.60;;;;;;;9.52;100.00;100309.48;105188;1273;71640;-58
2024/03/30 05:56:56;;;;;;;0.70;0.50;;;;;;;9.57;100.00;100310.92;105233;1271;61780;-58
2024/03/30 05:59:23;;;;;;;3.00;0.60;;;;;;;9.62;100.00;100309.48;105149;1270;61227;-58
2024/03/30 06:01:50;;;;;;;0.70;0.60;;;;;;;9.68;100.00;100313.05;105329;1263;73243;-57
2024/03/30 06:04:18;;;;;;;0.60;0.50;;;;;;;9.74;100.00;100312.47;105213;1267;64819;-57
2024/03/30 06:06:45;;;;;;;0.90;0.50;;;;;;;9.80;100.00;100316.52;105155;1270;73808;-57
2024/03/30 06:09:12;;;;;;;2.30;0.50;;;;;;;9.89;100.00;100313.17;105308;1264;60546;-57
2024/03/30 06:11:39;;;;;;;0.80;0.40;;;;;;;9.96;100.00;100315.41;105249;1264;60449;-56
2024/03/30 06:14:06;;;;;;;0.60;0.40;;;;;;;10.03;100.00;100322.86;105144;1264;72572;-56
2024/03/30 06:16:34;;;;;;;0.40;0.40;;;;;;;10.09;100.00;100318.54;105159;1264;67155;-57
2024/03/30 06:19:01;;;;;;;0.60;0.50;;;;;;;10.13;100.00;100323.56;105780;1270;71774;-57
2024/03/30 06:21:29;;;;;;;0.60;0.60;;;;;;;10.17;100.00;100321.83;105078;1272;61671;-56
2024/03/30 06:23:56;;;;;;;0.40;0.40;;;;;;;10.21;100.00;100324.91;105116;1267;60391;-56
2024/03/30 06:26:23;;;;;;;1.70;0.40;;;;;;;10.26;100.00;100319.90;105074;1276;73941;-56
2024/03/30 06:28:50;;;;;;;0.50;0.40;;;;;;;10.31;100.00;100321.48;105123;1266;67238;-56
2024/03/30 06:31:18;;;;;;;1.00;0.60;;;;;;;10.36;100.00;100318.98;105090;1270;71763;-57
2024/03/30 06:33:45;;;;;;;7.00;2.20;;;;;;;10.41;100.00;100320.73;105769;1257;60517;-57
2024/03/30 06:36:12;;;;;;;3.50;0.60;;;;;;;10.47;100.00;100316.73;105831;1259;60633;-57
2024/03/30 06:38:40;;;;;;;0.60;0.50;;;;;;;10.52;100.00;100316.20;105787;1261;72726;-57
2024/03/30 06:43:53;;;;;;;0.50;0.40;;;;;;;10.63;100.00;100319.91;105796;1278;72048;-55
2024/03/30 06:46:20;;;;;;;2.00;0.50;;;;;;;10.67;100.00;100316.13;105813;1257;61267;-56
2024/03/30 06:48:47;;;;;;;0.50;0.40;;;;;;;10.71;100.00;100320.13;105727;1260;61320;-57
2024/03/30 06:51:14;;;;;;;1.00;0.40;;;;;;;10.74;100.00;100316.73;105848;1260;72640;-56
2024/03/30 06:53:42;;;;;;;0.50;0.40;;;;;;;10.76;100.00;100316.65;105792;1261;68082;-57
2024/03/30 06:56:09;;;;;;;0.80;0.40;;;;;;;10.79;100.00;100311.89;105757;1260;72700;-56
2024/03/30 06:58:37;;;;;;;1.10;0.30;;;;;;;10.82;100.00;100312.11;106443;1258;60422;-58
2024/03/30 07:01:04;;;;;;;1.00;0.40;;;;;;;10.85;100.00;100312.17;105736;1256;60498;-56
2024/03/30 07:03:31;;;;;;;1.30;0.60;;;;;;;10.88;100.00;100307.00;105893;1256;73214;-56
2024/03/30 07:05:59;;;;;;;0.50;0.40;;;;;;;10.94;100.00;100311.81;105847;1257;68248;-57
2024/03/30 07:08:26;;;;;;;0.60;0.40;;;;;;;11.00;100.00;100316.23;105734;1257;72504;-57
2024/03/30 07:10:53;;;;;;;0.60;0.30;;;;;;;11.07;100.00;100310.90;105766;1261;60438;-56
2024/03/30 07:13:20;;;;;;;1.10;0.40;;;;;;;11.16;100.00;100310.17;105726;1258;60479;-57
2024/03/30 07:15:48;;;;;;;1.40;0.50;;;;;;;11.24;100.00;100310.52;105810;1261;75377;-57
2024/03/30 07:18:16;;;;;;;7.30;4.60;;;;;;;11.33;100.00;100305.30;105849;1263;65788;-56
2024/03/30 07:20:43;;;;;;;14.70;11.10;;;;;;;11.43;100.00;100304.52;108654;1257;72314;-56
2024/03/30 07:23:10;;;;;;;28.00;19.00;;;;;;;11.52;100.00;100303.04;108876;1257;60245;-57
2024/03/30 07:25:38;;;;;;;32.30;24.40;;;;;;;11.61;100.00;100309.30;108693;1257;60161;-56
2024/03/30 07:28:06;;;;;;;53.10;40.30;;;;;;;11.71;100.00;100308.52;108728;1257;74922;-57
2024/03/30 07:30:39;;;;;;;76.80;60.60;;;;;;;11.82;100.00;100303.93;108734;1258;66097;-56
2024/03/30 07:33:06;;;;;;;5.80;4.60;;;;;;;11.93;100.00;100300.88;108788;1257;70486;-57
2024/03/30 07:35:34;;;;;;;2.90;2.60;;;;;;;12.03;100.00;100299.73;108501;1255;60485;-57
2024/03/30 07:38:01;;;;;;;10.60;8.60;;;;;;;12.10;100.00;100299.55;105696;1257;60412;-58
2024/03/30 07:40:29;;;;;;;20.00;17.90;;;;;;;12.19;100.00;100307.98;105769;1256;72690;-56
2024/03/30 07:42:56;;;;;;;5.80;5.30;;;;;;;12.28;100.00;100312.80;105755;1260;65985;-57
2024/03/30 07:45:23;;;;;;;1.50;0.80;;;;;;;12.36;100.00;100309.88;108665;1257;71519;-57
2024/03/30 07:47:50;;;;;;;1.40;0.90;;;;;;;12.46;100.00;100310.29;108525;1259;59531;-56
2024/03/30 07:50:18;;;;;;;4.70;3.80;;;;;;;12.58;100.00;100304.33;108731;1260;58732;-58
2024/03/30 07:52:49;;;;;;;4.90;4.60;;;;;;;12.70;100.00;100307.52;108705;1256;72266;-57
2024/03/30 07:55:17;;;;;;;1.40;0.70;;;;;;;12.82;100.00;100307.66;108833;1257;66988;-56
2024/03/30 07:57:44;;;;;;;1.20;0.50;;;;;;;12.94;100.00;100304.39;108717;1257;72711;-57
2024/03/30 08:00:11;;;;;;;0.90;0.80;;;;;;;13.02;100.00;100306.70;108808;1255;59988;-56
2024/03/30 08:02:39;;;;;;;1.40;0.60;;;;;;;13.09;100.00;100308.86;108733;1257;60371;-57
2024/03/30 08:05:06;;;;;;;0.60;0.50;;;;;;;13.16;100.00;100307.79;108586;1255;74470;-56
2024/03/30 08:07:33;;;;;;;0.70;0.50;;;;;;;13.25;100.00;100306.11;108761;1256;66134;-57
2024/03/30 08:10:00;;;;;;;0.60;0.40;;;;;;;13.35;100.00;100307.39;107306;1260;72203;-55
2024/03/30 08:12:28;;;;;;;0.60;0.40;;;;;;;13.46;100.00;100309.92;105833;1256;61222;-56
2024/03/30 08:14:55;;;;;;;0.80;0.40;;;;;;;13.56;100.00;100314.43;105792;1260;61388;-56
2024/03/30 08:17:22;;;;;;;2.20;0.40;;;;;;;13.67;100.00;100319.42;105779;1263;73985;-56
2024/03/30 08:19:50;;;;;;;0.70;0.40;;;;;;;13.79;100.00;100313.25;108719;1257;65986;-56
2024/03/30 08:22:17;;;;;;;0.40;0.30;;;;;;;13.90;100.00;100317.86;108697;1257;72771;-56
2024/03/30 08:24:44;;;;;;;1.90;0.30;;;;;;;14.01;100.00;100316.70;108902;1257;59163;-57
2024/03/30 08:27:11;;;;;;;0.50;0.30;;;;;;;14.12;100.00;100317.21;107564;1259;60591;-56
2024/03/30 08:29:38;;;;;;;0.60;0.40;;;;;;;14.22;100.00;100317.08;105841;1272;73824;-55
2024/03/30 08:32:06;;;;;;;2.10;0.30;;;;;;;14.31;100.00;100314.95;105854;1257;66733;-56
2024/03/30 08:34:34;;;;;;;0.40;0.20;;;;;;;14.40;100.00;100317.15;106045;1264;71611;-55
2024/03/30 08:37:01;;;;;;;0.40;0.20;;;;;;;14.50;100.00;100315.02;105868;1263;60447;-57
2024/03/30 08:39:28;;;;;;;2.20;0.40;;;;;;;14.60;100.00;100317.14;105685;1260;60369;-56
2024/03/30 08:41:56;;;;;;;0.30;0.20;;;;;;;14.70;100.00;100321.59;105827;1271;76189;-57
2024/03/30 08:44:23;;;;;;;1.20;0.30;;;;;;;14.82;100.00;100320.63;105782;1260;67504;-56
2024/03/30 08:46:51;;;;;;;0.30;0.20;;;;;;;14.92;100.00;100319.84;106436;1259;72414;-57
2024/03/30 08:49:18;;;;;;;0.40;0.20;;;;;;;15.02;100.00;100319.94;105840;1261;61442;-58
2024/03/30 08:51:46;;;;;;;0.60;0.30;;;;;;;15.13;100.00;100321.82;105860;1257;60406;-56
2024/03/30 08:54:13;;;;;;;0.50;0.30;;;;;;;15.24;100.00;100325.56;105792;1260;74528;-56
2024/03/30 08:56:40;;;;;;;0.30;0.30;;;;;;;15.34;100.00;100329.88;105879;1258;69043;-57
2024/03/30 08:59:07;;;;;;;3.40;0.30;;;;;;;15.44;100.00;100328.50;105845;1260;74413;-56
2024/03/30 09:01:37;;;;;;;2.30;0.30;;;;;;;15.57;100.00;100330.70;105886;1258;61231;-56
2024/03/30 09:04:04;;;;;;;0.80;0.30;;;;;;;15.70;100.00;100334.58;105768;1259;61445;-56
2024/03/30 09:06:31;;;;;;;0.20;0.20;;;;;;;15.85;100.00;100331.88;105785;1257;73426;-55
2024/03/30 09:08:58;;;;;;;0.30;0.20;;;;;;;15.99;100.00;100334.08;105711;1260;65658;-55
2024/03/30 09:11:26;;;;;;;0.40;0.30;;;;;;;16.10;100.00;100332.11;105820;1264;71550;-56
2024/03/30 09:13:53;;;;;;;0.40;0.30;;;;;;;16.18;100.00;100337.23;105839;1261;61642;-56
2024/03/30 09:16:20;;;;;;;1.30;0.30;;;;;;;16.25;100.00;100336.64;105803;1265;62346;-56
2024/03/30 09:18:47;;;;;;;0.40;0.20;;;;;;;16.33;100.00;100334.16;105796;1261;75588;-55
2024/03/30 09:21:14;;;;;;;1.70;0.30;;;;;;;16.44;100.00;100338.84;105854;1260;66687;-56
2024/03/30 09:23:42;;;;;;;0.30;0.20;;;;;;;16.59;100.00;100342.63;105857;1257;72807;-57
2024/03/30 09:26:10;;;;;;;0.50;0.40;;;;;;;16.72;100.00;100349.41;105804;1260;61300;-56
2024/03/30 09:28:37;;;;;;;0.30;0.20;;;;;;;16.82;100.00;100350.41;105784;1258;62236;-56
2024/03/30 09:31:04;;;;;;;1.90;0.20;;;;;;;16.90;100.00;100351.19;105783;1261;74796;-55
2024/03/30 09:33:31;;;;;;;0.20;0.20;;;;;;;16.94;100.00;100350.37;105888;1256;66713;-57
2024/03/30 09:35:59;;;;;;;0.60;0.20;;;;;;;16.97;100.00;100355.80;105759;1262;72787;-56
2024/03/30 09:38:27;;;;;;;1.40;0.40;;;;;;;16.96;100.00;100357.62;105819;1257;62370;-56
2024/03/30 09:40:58;;;;;;;0.50;0.40;;;;;;;16.95;100.00;100357.33;105847;1256;61350;-55
2024/03/30 09:43:26;;;;;;;0.40;0.30;;;;;;;16.95;100.00;100356.99;105828;1261;75195;-56
2024/03/30 09:45:53;;;;;;;0.60;0.40;;;;;;;16.95;100.00;100359.50;105896;1267;66053;-57
2024/03/30 09:48:20;;;;;;;0.70;0.30;;;;;;;16.97;100.00;100358.30;105783;1262;71476;-56
2024/03/30 09:50:47;;;;;;;3.00;0.30;;;;;;;17.00;100.00;100361.58;105661;1257;62342;-55
2024/03/30 09:53:17;;;;;;;0.30;0.20;;;;;;;17.01;100.00;100363.48;105924;1259;61324;-56
2024/03/30 09:55:45;;;;;;;0.40;0.40;;;;;;;17.01;100.00;100358.58;105730;1257;74329;-55
2024/03/30 09:58:13;;;;;;;1.00;0.40;;;;;;;17.04;100.00;100359.50;105645;1262;67053;-56
2024/03/30 10:00:41;;;;;;;1.50;0.30;;;;;;;17.07;100.00;100358.05;105865;1265;71446;-55
2024/03/30 10:03:08;;;;;;;1.20;0.20;;;;;;;17.10;100.00;100353.80;105764;1260;61307;-55
2024/03/30 10:05:36;;;;;;;0.60;0.30;;;;;;;17.14;100.00;100357.74;105747;1260;61148;-56
2024/03/30 10:08:06;;;;;;;0.30;0.20;;;;;;;17.18;100.00;100353.14;105751;1260;77020;-56
2024/03/30 10:10:34;;;;;;;0.40;0.20;;;;;;;17.21;100.00;100354.73;106210;1257;66946;-55
2024/03/30 10:13:05;;;;;;;0.30;0.20;;;;;;;17.23;100.00;100352.41;105712;1257;72763;-55
2024/03/30 10:15:51;;;;;;;0.50;0.10;;;;;;;17.27;100.00;100356.33;107755;1258;60046;-56
2024/03/30 10:18:19;;;;;;;0.20;0.20;;;;;;;17.32;100.00;100357.46;106209;1257;61364;-56
2024/03/30 10:20:46;;;;;;;0.40;0.20;;;;;;;17.34;100.00;100355.27;105841;1257;75239;-57
2024/03/30 10:23:13;;;;;;;0.50;0.20;;;;;;;17.36;100.00;100346.27;105734;1257;66832;-57
2024/03/30 10:25:51;;;;;;;0.30;0.20;;;;;;;17.37;100.00;100346.20;105643;1257;73111;-57
2024/03/30 10:28:18;;;;;;;0.30;0.20;;;;;;;17.40;100.00;100342.02;107694;1260;61411;-56
2024/03/30 10:30:46;;;;;;;0.40;0.20;;;;;;;17.46;100.00;100337.85;105968;1262;62180;-56
2024/03/30 10:33:14;;;;;;;0.50;0.10;;;;;;;17.49;100.00;100338.75;105679;1261;73458;-56
2024/03/30 10:35:42;;;;;;;0.30;0.20;;;;;;;17.51;100.00;100341.33;108733;1256;70025;-57
2024/03/30 10:38:12;;;;;;;0.70;0.30;;;;;;;17.52;100.00;100342.30;108906;1256;71440;-57
2024/03/30 10:40:40;;;;;;;0.50;0.20;;;;;;;17.53;100.00;100343.31;106071;1260;62079;-56
2024/03/30 10:43:08;;;;;;;0.90;0.10;;;;;;;17.55;100.00;100339.78;105795;1262;61307;-54
2024/03/30 10:45:36;;;;;;;0.80;0.20;;;;;;;17.56;100.00;100333.73;108818;1256;73971;-56
2024/03/30 10:48:04;;;;;;;1.30;0.20;;;;;;;17.57;100.00;100330.59;108741;1255;66961;-55
2024/03/30 10:50:32;;;;;;;0.50;0.30;;;;;;;17.60;100.00;100327.28;108732;1257;73098;-55
2024/03/30 10:53:03;;;;;;;0.50;0.30;;;;;;;17.64;100.00;100325.91;108778;1256;60187;-56
2024/03/30 10:55:31;;;;;;;0.40;0.20;;;;;;;17.68;100.00;100325.13;108766;1260;60589;-56
2024/03/30 10:57:58;;;;;;;1.60;0.20;;;;;;;17.71;100.00;100325.98;108729;1256;74758;-55
2024/03/30 11:00:25;;;;;;;0.70;0.30;;;;;;;17.74;100.00;100323.23;108823;1256;67240;-56
2024/03/30 11:02:53;;;;;;;0.40;0.20;;;;;;;17.78;100.00;100327.84;108742;1257;71463;-54
2024/03/30 11:05:20;;;;;;;0.70;0.20;;;;;;;17.82;100.00;100326.85;108677;1257;59418;-55
2024/03/30 11:07:48;;;;;;;0.60;0.20;;;;;;;17.85;100.00;100327.76;105664;1263;62134;-54
2024/03/30 11:10:15;;;;;;;1.10;0.20;;;;;;;17.88;100.00;100327.02;105742;1270;75446;-56
2024/03/30 11:12:45;;;;;;;0.30;0.20;;;;;;;17.90;100.00;100323.44;105771;1262;66968;-57
2024/03/30 11:15:13;;;;;;;0.40;0.20;;;;;;;17.91;100.00;100328.06;105768;1263;70731;-57
2024/03/30 11:17:47;;;;;;;0.50;0.20;;;;;;;17.93;100.00;100326.23;108713;1257;60320;-55
2024/03/30 11:20:17;;;;;;;0.20;0.20;;;;;;;17.97;100.00;100331.98;108397;1257;60306;-55